Terminal Aerodrome Forecast
Issued by NWS

Home | Current Version | Previous Version | Text Only | Print | Product List | Glossary On
Versions: 1 2 3 4 5 6 7 8 9 10 11 12 13 14 15
000
FTUS43 KABR 220500
TAFPIR
TAF
KPIR 220523Z 2206/2306 VRB03KT P6SM SKC
     FM220900 15010KT P6SM SKC
     FM221800 16018G25KT P6SM SKC
     FM230000 14015KT P6SM BKN130=

USA.gov is the U.S. government's official web portal to all federal, state and local government web resources and services.